Time;durP1;ratioP1;P1;durP2;ratioP2;P2;SDS_P1;SDS_P2;PMS_P1;PMS_P2;Temp;Humidity;BMP_temperature;BMP_pressure;BME280_temperature;BME280_humidity;BME280_pressure;Samples;Min_cycle;Max_cycle;Signal;HPM_P1;HPM_P2
2022/02/18 00:00:57;;;;;;;2.88;1.52;;;10.30;76.40;;;;;;4826350;29;20077;-81
2022/02/18 00:03:28;;;;;;;3.22;1.52;;;10.30;76.40;;;;;;4811782;29;20575;-82
2022/02/18 00:05:54;;;;;;;3.95;1.55;;;10.30;76.50;;;;;;4811445;29;20041;-81
2022/02/18 00:08:21;;;;;;;3.42;1.45;;;10.30;76.50;;;;;;4796460;29;20083;-82
2022/02/18 00:10:48;;;;;;;3.60;1.70;;;10.30;76.50;;;;;;4811766;29;20109;-81
2022/02/18 00:13:15;;;;;;;3.80;1.50;;;10.30;76.50;;;;;;4826167;29;20086;-81
2022/02/18 00:15:41;;;;;;;3.60;1.50;;;10.30;77.10;;;;;;4811074;29;20034;-81
2022/02/18 00:18:07;;;;;;;5.10;1.70;;;10.30;76.50;;;;;;4810749;29;20133;-82
2022/02/18 00:20:34;;;;;;;2.78;1.42;;;10.30;76.50;;;;;;4811686;29;20045;-81
2022/02/18 00:23:02;;;;;;;2.17;1.30;;;10.30;76.60;;;;;;4797008;29;20041;-81
2022/02/18 00:25:28;;;;;;;3.40;1.55;;;10.20;76.50;;;;;;4826571;29;20117;-82
2022/02/18 00:27:57;;;;;;;3.92;1.50;;;10.30;76.60;;;;;;4811682;29;20475;-81
2022/02/18 00:30:24;;;;;;;3.10;1.40;;;10.20;76.60;;;;;;4810819;29;20059;-81
2022/02/18 00:32:49;;;;;;;5.78;1.48;;;10.20;76.50;;;;;;4811206;29;20042;-80
2022/02/18 00:35:19;;;;;;;4.03;1.77;;;10.20;76.60;;;;;;4811569;29;20352;-82
2022/02/18 00:37:54;;;;;;;3.15;1.40;;;10.20;76.60;;;;;;4811546;29;20041;-81
2022/02/18 00:40:20;;;;;;;;;;;10.20;76.70;;;;;;4811655;29;20136;-83
2022/02/18 00:42:46;;;;;;;3.28;1.27;;;10.20;76.50;;;;;;4811048;29;19940;-82
2022/02/18 00:45:12;;;;;;;3.45;1.42;;;10.20;76.50;;;;;;4826380;29;20091;-81
2022/02/18 00:47:38;;;;;;;3.63;1.75;;;10.20;76.60;;;;;;4811167;29;20026;-81
2022/02/18 00:50:05;;;;;;;3.95;1.40;;;10.20;76.70;;;;;;4811496;29;20444;-82
2022/02/18 00:52:31;;;;;;;2.88;1.50;;;10.20;76.80;;;;;;4814352;29;20034;-82
2022/02/18 00:54:56;;;;;;;3.30;1.75;;;10.20;76.70;;;;;;4813944;29;20086;-82
2022/02/18 00:57:22;;;;;;;4.20;1.60;;;10.20;76.70;;;;;;4829188;29;20117;-81
2022/02/18 00:59:48;;;;;;;4.53;1.50;;;10.20;76.70;;;;;;4799204;29;20391;-81
2022/02/18 01:02:14;;;;;;;3.33;1.40;;;10.20;76.80;;;;;;4814026;29;20462;-82
2022/02/18 01:04:40;;;;;;;1.85;1.17;;;10.20;76.80;;;;;;4829053;29;20033;-83
2022/02/18 01:07:06;;;;;;;1.88;1.30;;;10.20;76.70;;;;;;4829787;29;20064;-81
2022/02/18 01:09:34;;;;;;;2.67;1.40;;;10.20;76.80;;;;;;4814279;29;20483;-81
2022/02/18 01:12:00;;;;;;;1.80;1.30;;;10.20;76.80;;;;;;4814264;29;20038;-84
2022/02/18 01:14:29;;;;;;;2.58;1.30;;;10.10;76.70;;;;;;4845602;29;20037;-81
2022/02/18 01:16:55;;;;;;;2.17;1.40;;;10.20;76.80;;;;;;4813702;29;20144;-81
2022/02/18 01:19:23;;;;;;;1.95;1.25;;;10.10;76.70;;;;;;4799768;29;20042;-82
2022/02/18 01:21:49;;;;;;;3.03;1.30;;;10.20;76.80;;;;;;4829074;29;20090;-82
2022/02/18 01:24:15;;;;;;;2.08;1.30;;;10.10;76.80;;;;;;4814295;29;20026;-81
2022/02/18 01:26:40;;;;;;;3.80;1.38;;;10.10;76.80;;;;;;4813828;29;20037;-82
2022/02/18 01:29:07;;;;;;;2.47;1.30;;;10.10;76.80;;;;;;4813468;29;20042;-83
2022/02/18 01:31:32;;;;;;;2.20;1.40;;;10.20;76.80;;;;;;4814457;29;20029;-83
2022/02/18 01:33:58;;;;;;;3.00;1.50;;;10.10;76.80;;;;;;4798593;29;20555;-81
2022/02/18 01:36:25;;;;;;;3.58;1.55;;;10.10;76.80;;;;;;4814285;29;20033;-81
2022/02/18 01:38:53;;;;;;;3.30;1.42;;;10.20;76.90;;;;;;4828439;29;20052;-82
2022/02/18 01:41:20;;;;;;;2.85;1.35;;;10.10;76.80;;;;;;4813593;29;20038;-83
2022/02/18 01:43:48;;;;;;;3.08;1.48;;;10.10;76.80;;;;;;4813165;29;20034;-82
2022/02/18 01:46:14;;;;;;;2.72;1.40;;;10.10;76.80;;;;;;4828596;29;20026;-82
2022/02/18 01:48:40;;;;;;;3.40;1.40;;;10.10;76.80;;;;;;4813740;29;20498;-84
2022/02/18 01:51:06;;;;;;;2.10;1.40;;;10.10;76.80;;;;;;4784039;29;20026;-81
2022/02/18 01:53:32;;;;;;;2.65;1.48;;;10.10;76.80;;;;;;4813223;29;20037;-81
2022/02/18 01:55:57;;;;;;;2.17;1.42;;;10.10;76.80;;;;;;4828129;29;20026;-81
2022/02/18 01:58:24;;;;;;;2.55;1.30;;;10.10;76.90;;;;;;4813405;29;20046;-82
2022/02/18 02:00:53;;;;;;;3.03;1.77;;;10.10;76.90;;;;;;4813516;29;20033;-82
2022/02/18 02:03:20;;;;;;;1.55;1.30;;;10.10;76.90;;;;;;4782642;29;20073;-83
2022/02/18 02:05:47;;;;;;;1.90;1.50;;;10.10;76.90;;;;;;4844950;29;20030;-81
2022/02/18 02:08:13;;;;;;;3.20;1.42;;;10.10;76.90;;;;;;4812912;29;20030;-81
2022/02/18 02:10:46;;;;;;;1.85;1.40;;;10.10;76.90;;;;;;4814565;29;20038;-82
2022/02/18 02:13:33;;;;;;;4.57;1.90;;;10.10;76.90;;;;;;4828190;29;20037;-81
2022/02/18 02:16:03;;;;;;;2.03;1.20;;;10.10;77.00;;;;;;4844833;29;20046;-82
2022/02/18 02:18:29;;;;;;;2.47;1.50;;;10.10;76.90;;;;;;4827797;29;20103;-81
2022/02/18 02:20:55;;;;;;;1.77;1.20;;;10.10;76.90;;;;;;4812426;29;20384;-82
2022/02/18 02:23:21;;;;;;;2.50;1.30;;;10.10;77.00;;;;;;4812632;29;20469;-82
2022/02/18 02:25:48;;;;;;;2.67;1.40;;;10.10;77.00;;;;;;4798620;29;20037;-82
2022/02/18 02:28:22;;;;;;;2.33;1.40;;;10.00;77.00;;;;;;4814141;29;20033;-82
2022/02/18 02:30:50;;;;;;;3.10;1.40;;;10.10;77.00;;;;;;4813057;29;20040;-80
2022/02/18 02:33:16;;;;;;;4.30;1.40;;;10.00;77.00;;;;;;4827821;29;20045;-83
2022/02/18 02:35:46;;;;;;;2.90;1.30;;;10.00;77.00;;;;;;4813241;29;20022;-81
2022/02/18 02:38:12;;;;;;;1.95;1.30;;;10.10;77.00;;;;;;4827776;29;20128;-82
2022/02/18 02:40:38;;;;;;;2.50;1.35;;;10.00;77.00;;;;;;4813306;29;20110;-81
2022/02/18 02:43:05;;;;;;;2.70;1.70;;;10.00;77.00;;;;;;4812424;29;20065;-82
2022/02/18 02:45:30;;;;;;;1.55;1.20;;;10.10;77.20;;;;;;4812178;29;20114;-82
2022/02/18 02:47:56;;;;;;;2.33;1.30;;;10.10;77.00;;;;;;4812415;29;20038;-81
2022/02/18 02:50:45;;;;;;;2.20;1.17;;;10.00;77.00;;;;;;4827684;29;20138;-81
2022/02/18 02:53:11;;;;;;;1.45;1.20;;;10.00;77.00;;;;;;4812670;29;20479;-81
2022/02/18 02:55:37;;;;;;;2.22;1.48;;;10.00;77.00;;;;;;4812426;29;20036;-82
2022/02/18 02:58:03;;;;;;;4.43;1.55;;;10.00;77.00;;;;;;4812847;29;20121;-82
2022/02/18 03:00:29;;;;;;;1.40;1.30;;;10.00;77.00;;;;;;4797174;29;20053;-84
2022/02/18 03:02:55;;;;;;;2.75;1.45;;;10.00;77.00;;;;;;4812356;29;20030;-83
2022/02/18 03:05:33;;;;;;;1.38;1.25;;;10.00;77.00;;;;;;4827377;29;20053;-82
2022/02/18 03:08:03;;;;;;;2.22;1.30;;;10.00;77.00;;;;;;4812047;29;20037;-82
2022/02/18 03:10:32;;;;;;;2.42;1.55;;;10.00;77.00;;;;;;4812440;29;20494;-81
2022/02/18 03:13:01;;;;;;;2.30;1.40;;;10.00;77.00;;;;;;4811896;29;20037;-82
2022/02/18 03:15:27;;;;;;;2.17;1.50;;;10.00;77.10;;;;;;4827317;29;20034;-82
2022/02/18 03:17:53;;;;;;;2.67;1.55;;;10.00;77.10;;;;;;4808246;29;20159;-82
2022/02/18 03:20:24;;;;;;;2.67;1.38;;;10.00;77.10;;;;;;4795296;29;20043;-83
2022/02/18 03:22:51;;;;;;;2.20;1.50;;;10.00;77.10;;;;;;4824916;29;20034;-82
2022/02/18 03:25:17;;;;;;;2.55;1.40;;;10.00;77.10;;;;;;4793909;29;20433;-81
2022/02/18 03:27:43;;;;;;;3.30;1.65;;;10.00;77.10;;;;;;4808879;29;20049;-82
2022/02/18 03:30:11;;;;;;;2.60;1.40;;;10.00;77.10;;;;;;4808961;29;20031;-80
2022/02/18 03:32:38;;;;;;;1.77;1.38;;;10.00;77.10;;;;;;4808838;29;20026;-81
2022/02/18 03:35:05;;;;;;;3.88;1.52;;;10.00;77.10;;;;;;4793724;29;20361;-83
2022/02/18 03:37:36;;;;;;;3.35;1.52;;;10.00;77.10;;;;;;4809238;29;20063;-83
2022/02/18 03:40:13;;;;;;;2.20;1.40;;;10.00;77.10;;;;;;4824036;29;20045;-81
2022/02/18 03:42:39;;;;;;;1.85;1.33;;;10.00;77.10;;;;;;4808650;29;20156;-81
2022/02/18 03:45:06;;;;;;;2.22;1.60;;;10.00;77.20;;;;;;4793640;29;20069;-81
2022/02/18 03:47:33;;;;;;;4.15;1.52;;;10.00;77.20;;;;;;4808534;29;20027;-84
2022/02/18 03:50:01;;;;;;;3.35;1.50;;;10.00;77.20;;;;;;4779504;29;20048;-81
2022/02/18 03:52:27;;;;;;;3.17;1.58;;;10.00;77.20;;;;;;4824580;29;20065;-81
2022/02/18 03:54:53;;;;;;;2.90;1.55;;;10.00;77.20;;;;;;4825055;29;20062;-81
2022/02/18 03:57:19;;;;;;;2.72;1.45;;;10.00;77.20;;;;;;4794581;29;20038;-81
2022/02/18 03:59:46;;;;;;;1.33;1.23;;;10.00;77.20;;;;;;4779701;29;20468;-83
2022/02/18 04:02:12;;;;;;;2.22;1.40;;;10.00;77.20;;;;;;4823838;29;20035;-82
2022/02/18 04:04:38;;;;;;;4.10;1.67;;;10.00;77.20;;;;;;4808539;29;20082;-82
2022/02/18 04:07:27;;;;;;;2.80;1.48;;;10.00;77.20;;;;;;4806568;29;20074;-81
2022/02/18 04:10:01;;;;;;;2.70;1.60;;;10.00;77.20;;;;;;4809776;29;20091;-82
2022/02/18 04:12:31;;;;;;;4.15;1.70;;;10.00;77.20;;;;;;4809002;29;20064;-82
2022/02/18 04:15:13;;;;;;;3.75;1.80;;;10.00;77.20;;;;;;4824159;29;20357;-83
2022/02/18 04:17:38;;;;;;;2.22;1.55;;;10.00;77.20;;;;;;4808257;29;20145;-82
2022/02/18 04:20:17;;;;;;;2.97;1.40;;;10.00;77.30;;;;;;4810146;29;20069;-81
2022/02/18 04:22:53;;;;;;;3.72;1.35;;;10.00;77.20;;;;;;4795620;29;20489;-83
2022/02/18 04:25:25;;;;;;;3.85;1.65;;;10.00;77.30;;;;;;4824158;29;20045;-83
2022/02/18 04:27:59;;;;;;;2.15;1.50;;;10.00;77.30;;;;;;4826990;29;20463;-83
2022/02/18 04:30:25;;;;;;;1.70;1.42;;;10.00;77.30;;;;;;4827117;29;20066;-81
2022/02/18 04:32:52;;;;;;;3.08;1.40;;;10.00;77.30;;;;;;4826498;29;20034;-81
2022/02/18 04:35:18;;;;;;;5.28;1.67;;;10.00;77.30;;;;;;4811748;29;20041;-83
2022/02/18 04:37:45;;;;;;;1.92;1.38;;;10.00;77.30;;;;;;4811741;29;20035;-82
2022/02/18 04:40:12;;;;;;;2.88;1.45;;;10.00;77.30;;;;;;4826308;29;20089;-82
2022/02/18 04:42:38;;;;;;;3.17;1.50;;;10.00;77.30;;;;;;4811423;29;20038;-82
2022/02/18 04:45:04;;;;;;;3.03;1.50;;;10.00;77.30;;;;;;4811553;29;20184;-82
2022/02/18 04:47:31;;;;;;;2.47;1.40;;;10.00;77.30;;;;;;4811808;29;20532;-86
2022/02/18 04:49:57;;;;;;;2.60;1.40;;;10.00;77.30;;;;;;4811762;29;20117;-82
2022/02/18 04:52:23;;;;;;;2.80;1.52;;;10.00;77.30;;;;;;4826523;29;20467;-82
2022/02/18 04:54:48;;;;;;;2.90;1.52;;;10.00;77.40;;;;;;4826426;29;20359;-81
2022/02/18 04:57:14;;;;;;;3.60;1.60;;;10.00;77.30;;;;;;4826396;29;20479;-81
2022/02/18 04:59:40;;;;;;;3.65;1.27;;;10.00;77.30;;;;;;4826106;29;20034;-82
2022/02/18 05:02:06;;;;;;;3.50;1.63;;;10.00;77.40;;;;;;4811639;29;20510;-83
2022/02/18 05:04:32;;;;;;;2.88;1.65;;;10.00;77.30;;;;;;4811076;29;20038;-82
2022/02/18 05:06:59;;;;;;;2.78;1.58;;;10.00;77.30;;;;;;4811662;29;20462;-82
2022/02/18 05:09:25;;;;;;;2.08;1.40;;;10.00;77.30;;;;;;4826054;29;20132;-83
2022/02/18 05:11:51;;;;;;;2.88;1.48;;;10.00;77.30;;;;;;4811246;29;20039;-82
2022/02/18 05:14:17;;;;;;;5.15;1.73;;;10.00;77.30;;;;;;4811296;29;20035;-83
2022/02/18 05:16:43;;;;;;;3.33;1.50;;;10.00;77.40;;;;;;4827716;29;20050;-83
2022/02/18 05:19:09;;;;;;;2.40;1.70;;;10.00;77.40;;;;;;4814241;29;20045;-82
2022/02/18 05:21:39;;;;;;;3.30;1.80;;;10.00;77.40;;;;;;4829351;29;20038;-82
2022/02/18 05:24:06;;;;;;;3.67;1.63;;;10.00;77.40;;;;;;4814122;29;20034;-83
2022/02/18 05:26:32;;;;;;;2.75;1.30;;;10.00;77.40;;;;;;4829231;29;20120;-82
2022/02/18 05:28:57;;;;;;;3.90;1.80;;;10.00;77.40;;;;;;4828849;29;20478;-82
2022/02/18 05:31:23;;;;;;;2.85;1.60;;;10.00;77.40;;;;;;4814620;29;20405;-82
2022/02/18 05:33:49;;;;;;;3.45;1.38;;;10.00;77.40;;;;;;4813821;29;20498;-84
2022/02/18 05:36:17;;;;;;;4.15;1.60;;;10.00;77.40;;;;;;4830323;29;20026;-83
2022/02/18 05:38:43;;;;;;;3.38;1.60;;;10.00;77.40;;;;;;4829908;29;20069;-83
2022/02/18 05:41:10;;;;;;;4.07;1.52;;;10.00;77.40;;;;;;4816820;29;20041;-83
2022/02/18 05:43:36;;;;;;;3.55;1.88;;;10.00;77.40;;;;;;4815050;29;20030;-78
2022/02/18 05:46:02;;;;;;;3.65;1.77;;;10.10;77.40;;;;;;4828015;29;20116;-78
2022/02/18 05:48:27;;;;;;;3.53;1.50;;;10.10;77.40;;;;;;4813171;29;20034;-78
2022/02/18 05:50:53;;;;;;;3.90;1.77;;;10.10;77.50;;;;;;4827811;29;20458;-80
2022/02/18 05:53:19;;;;;;;3.92;1.67;;;10.10;77.50;;;;;;4812805;29;20118;-79
2022/02/18 05:55:45;;;;;;;5.35;1.80;;;10.10;77.50;;;;;;4813523;29;20098;-80
2022/02/18 05:58:11;;;;;;;4.32;2.10;;;10.00;77.40;;;;;;4827907;29;20026;-80
2022/02/18 06:00:40;;;;;;;4.40;1.75;;;10.10;77.50;;;;;;4798819;29;20046;-81
2022/02/18 06:03:05;;;;;;;4.97;1.80;;;10.00;77.50;;;;;;4828588;29;20495;-79
2022/02/18 06:05:31;;;;;;;4.38;1.55;;;10.10;77.50;;;;;;4797510;29;20090;-80
2022/02/18 06:07:57;;;;;;;4.35;1.90;;;10.00;77.40;;;;;;4827689;29;20030;-81
2022/02/18 06:10:23;;;;;;;4.07;1.70;;;10.10;77.50;;;;;;4812762;29;20117;-80
2022/02/18 06:12:49;;;;;;;5.15;2.25;;;10.10;77.50;;;;;;4812704;29;20460;-78
2022/02/18 06:15:15;;;;;;;4.32;1.65;;;10.10;77.50;;;;;;4844282;29;20034;-81
2022/02/18 06:17:41;;;;;;;3.75;1.58;;;10.10;77.50;;;;;;4828101;29;20077;-78
2022/02/18 06:20:08;;;;;;;4.07;1.90;;;10.10;77.50;;;;;;4827846;29;20054;-78
2022/02/18 06:22:36;;;;;;;4.38;1.92;;;10.10;77.50;;;;;;4783229;29;20042;-77
2022/02/18 06:25:06;;;;;;;5.05;1.92;;;10.10;77.50;;;;;;4797902;29;20127;-79
2022/02/18 06:27:32;;;;;;;5.32;1.95;;;10.10;77.50;;;;;;4827479;29;20038;-77
2022/02/18 06:29:57;;;;;;;4.57;1.90;;;10.10;77.50;;;;;;4827171;29;20040;-76
2022/02/18 06:32:28;;;;;;;5.47;2.38;;;10.10;77.50;;;;;;4828109;29;20128;-79
2022/02/18 06:34:54;;;;;;;6.07;2.00;;;10.10;77.50;;;;;;4826827;29;20117;-77
2022/02/18 06:37:20;;;;;;;3.03;1.55;;;10.10;77.50;;;;;;4812211;29;20040;-76
2022/02/18 06:39:46;;;;;;;5.93;2.50;;;10.10;77.50;;;;;;4843386;29;20042;-77
2022/02/18 06:42:12;;;;;;;4.45;1.80;;;10.10;77.60;;;;;;4827484;29;20451;-76
2022/02/18 06:44:38;;;;;;;5.18;1.67;;;10.10;77.50;;;;;;4826962;29;20064;-77
2022/02/18 06:47:04;;;;;;;2.03;1.45;;;10.10;77.50;;;;;;4828108;29;20086;-78
2022/02/18 06:49:30;;;;;;;3.65;1.83;;;10.10;77.50;;;;;;4811719;29;20455;-79
2022/02/18 06:51:56;;;;;;;3.38;1.70;;;10.10;77.50;;;;;;4782477;29;20030;-77
2022/02/18 06:54:22;;;;;;;3.63;1.77;;;10.10;77.50;;;;;;4812327;29;20448;-79
2022/02/18 06:56:49;;;;;;;2.90;1.45;;;10.10;77.50;;;;;;4812170;29;20467;-77
2022/02/18 06:59:15;;;;;;;4.13;1.73;;;10.20;77.60;;;;;;4827526;29;20479;-77
2022/02/18 07:01:40;;;;;;;3.47;1.88;;;10.10;77.50;;;;;;4827125;29;20058;-78
2022/02/18 07:04:06;;;;;;;3.83;1.77;;;10.10;77.50;;;;;;4797119;29;20048;-78
2022/02/18 07:06:32;;;;;;;7.30;2.15;;;10.20;77.60;;;;;;4811715;29;20106;-78
2022/02/18 07:08:57;;;;;;;5.38;1.80;;;10.20;77.60;;;;;;4827599;29;20058;-79
2022/02/18 07:11:23;;;;;;;5.40;1.67;;;10.20;77.60;;;;;;4796939;29;20041;-79
2022/02/18 07:13:49;;;;;;;3.85;1.70;;;10.20;77.60;;;;;;4811544;29;20049;-78
2022/02/18 07:16:15;;;;;;;2.67;1.40;;;10.20;77.60;;;;;;4827580;29;20034;-80
2022/02/18 07:18:41;;;;;;;5.95;1.83;;;10.20;77.60;;;;;;4827823;29;20054;-80
2022/02/18 07:21:07;;;;;;;5.13;1.90;;;10.20;77.70;;;;;;4813127;29;20047;-77
2022/02/18 07:23:34;;;;;;;3.65;1.60;;;10.20;77.70;;;;;;4812911;29;20061;-79
2022/02/18 07:26:00;;;;;;;3.58;1.70;;;10.20;77.70;;;;;;4812731;29;20077;-77
2022/02/18 07:28:27;;;;;;;4.22;1.65;;;10.20;77.70;;;;;;4843788;29;20158;-79
2022/02/18 07:30:53;;;;;;;2.75;1.70;;;10.20;77.70;;;;;;4812806;29;20061;-78
2022/02/18 07:33:19;;;;;;;5.47;1.67;;;10.20;77.60;;;;;;4843720;29;20030;-81
2022/02/18 07:35:45;;;;;;;2.80;1.50;;;10.20;77.70;;;;;;4828007;29;20037;-78
2022/02/18 07:38:11;;;;;;;3.67;1.77;;;10.20;77.70;;;;;;4813800;29;20037;-77
2022/02/18 07:40:37;;;;;;;4.85;2.05;;;10.20;77.70;;;;;;4827686;29;20472;-77
2022/02/18 07:43:03;;;;;;;4.20;1.70;;;10.20;77.70;;;;;;4827864;29;20038;-78
2022/02/18 07:45:30;;;;;;;4.35;1.80;;;10.20;77.70;;;;;;4816586;29;20046;-79
2022/02/18 07:47:56;;;;;;;4.97;1.95;;;10.20;77.70;;;;;;4841905;29;20074;-79
2022/02/18 07:50:23;;;;;;;2.15;1.50;;;10.20;77.70;;;;;;4813092;29;20049;-79
2022/02/18 07:52:50;;;;;;;3.17;1.33;;;10.20;77.70;;;;;;4812859;29;20038;-80
2022/02/18 07:55:16;;;;;;;3.40;1.70;;;10.30;77.80;;;;;;4827794;29;20041;-79
2022/02/18 07:57:42;;;;;;;4.07;1.60;;;10.30;77.80;;;;;;4828087;29;20026;-79
2022/02/18 08:00:08;;;;;;;2.75;1.48;;;10.30;77.70;;;;;;4797962;29;20033;-80
2022/02/18 08:02:38;;;;;;;4.05;1.75;;;10.30;77.80;;;;;;4831718;29;20469;-78
2022/02/18 08:05:05;;;;;;;3.58;1.58;;;10.30;77.70;;;;;;4832131;29;20101;-79
2022/02/18 08:07:30;;;;;;;3.22;1.88;;;10.30;77.80;;;;;;4831641;29;20038;-79
2022/02/18 08:09:56;;;;;;;5.28;2.03;;;10.30;77.80;;;;;;4816807;29;20150;-78
2022/02/18 08:12:22;;;;;;;2.97;1.58;;;10.30;77.80;;;;;;4817372;29;20377;-78
2022/02/18 08:14:48;;;;;;;2.88;1.55;;;10.30;77.80;;;;;;4809433;29;20037;-82
2022/02/18 08:17:14;;;;;;;5.22;1.83;;;10.30;77.80;;;;;;4835521;29;20083;-77
2022/02/18 08:19:40;;;;;;;4.47;1.80;;;10.40;78.50;;;;;;4848549;29;20057;-77
2022/02/18 08:22:05;;;;;;;5.28;2.10;;;10.30;77.80;;;;;;4830442;29;20129;-78
2022/02/18 08:24:32;;;;;;;4.07;1.70;;;10.30;77.80;;;;;;4815578;29;20042;-76
2022/02/18 08:26:58;;;;;;;4.22;1.98;;;10.40;77.90;;;;;;4829768;29;20090;-78
2022/02/18 08:29:24;;;;;;;4.28;1.90;;;10.40;77.90;;;;;;4830115;29;20029;-77
2022/02/18 08:31:52;;;;;;;5.03;1.90;;;10.40;77.90;;;;;;4830093;29;20082;-77
2022/02/18 08:34:17;;;;;;;4.03;1.92;;;10.40;77.90;;;;;;4814978;29;20057;-79
2022/02/18 08:36:44;;;;;;;4.38;1.90;;;10.40;77.90;;;;;;4830211;29;20388;-77
2022/02/18 08:39:10;;;;;;;3.08;1.60;;;10.40;77.90;;;;;;4829946;29;20459;-77
2022/02/18 08:41:37;;;;;;;4.03;1.75;;;10.40;77.90;;;;;;4814529;29;20042;-77
2022/02/18 08:44:04;;;;;;;2.65;1.60;;;10.40;78.00;;;;;;4829250;29;20037;-79
2022/02/18 08:46:31;;;;;;;2.88;1.67;;;10.40;78.00;;;;;;4829491;29;20045;-78
2022/02/18 08:48:58;;;;;;;4.18;1.80;;;10.40;78.30;;;;;;4814562;29;20038;-77
2022/02/18 08:51:26;;;;;;;4.40;1.80;;;10.50;78.40;;;;;;4829391;29;20501;-78
2022/02/18 08:53:52;;;;;;;4.28;1.80;;;10.50;78.40;;;;;;4813857;29;20114;-80
2022/02/18 08:56:18;;;;;;;4.72;1.92;;;10.50;78.40;;;;;;4845452;29;20087;-78
2022/02/18 08:58:45;;;;;;;4.05;1.90;;;10.50;78.40;;;;;;4814153;29;20033;-79
2022/02/18 09:01:11;;;;;;;4.72;2.42;;;10.50;78.50;;;;;;4813810;29;20183;-78
2022/02/18 09:03:38;;;;;;;3.38;1.80;;;10.50;78.50;;;;;;4828607;29;20037;-78
2022/02/18 09:06:04;;;;;;;6.35;2.20;;;10.50;78.50;;;;;;4814124;29;20030;-78
2022/02/18 09:08:30;;;;;;;4.35;2.00;;;10.60;78.50;;;;;;4828399;29;20030;-78
2022/02/18 09:10:56;;;;;;;4.88;2.03;;;10.60;78.60;;;;;;4813095;29;20034;-76
2022/02/18 09:13:26;;;;;;;3.00;1.58;;;10.60;78.60;;;;;;4828681;29;20037;-78
2022/02/18 09:15:52;;;;;;;4.40;1.98;;;10.60;78.60;;;;;;4813678;29;20049;-80
2022/02/18 09:18:25;;;;;;;4.45;1.70;;;10.60;78.50;;;;;;4810724;29;20107;-78
2022/02/18 09:20:50;;;;;;;3.45;2.13;;;10.60;78.50;;;;;;4810758;29;20433;-78
2022/02/18 09:23:16;;;;;;;4.15;1.75;;;10.60;78.50;;;;;;4825038;29;20068;-77
2022/02/18 09:25:45;;;;;;;3.63;2.08;;;10.60;78.60;;;;;;4810640;29;20034;-78
2022/02/18 09:28:10;;;;;;;4.13;1.80;;;10.70;78.60;;;;;;4810792;29;20034;-77
2022/02/18 09:30:45;;;;;;;3.75;1.85;;;10.70;78.60;;;;;;4825420;29;20045;-77
2022/02/18 09:33:12;;;;;;;4.65;1.70;;;10.70;78.60;;;;;;4825509;29;20034;-76
2022/02/18 09:35:38;;;;;;;3.25;1.90;;;10.70;78.50;;;;;;4810315;29;20061;-78
2022/02/18 09:38:10;;;;;;;3.92;1.80;;;10.70;78.50;;;;;;4809938;29;20035;-78
2022/02/18 09:40:36;;;;;;;4.13;2.20;;;10.70;78.60;;;;;;4825591;29;20467;-78
2022/02/18 09:43:03;;;;;;;3.15;1.70;;;10.70;78.50;;;;;;4809853;29;20042;-78
2022/02/18 09:45:30;;;;;;;3.05;1.75;;;10.80;78.60;;;;;;4825359;29;20065;-77
2022/02/18 09:47:56;;;;;;;3.47;1.60;;;10.80;78.60;;;;;;4810508;29;20097;-79
2022/02/18 09:50:23;;;;;;;2.63;1.50;;;10.80;78.60;;;;;;4810310;29;20065;-78
2022/02/18 09:52:48;;;;;;;4.25;1.58;;;10.80;78.60;;;;;;4794927;29;20138;-79
2022/02/18 09:55:14;;;;;;;3.05;1.60;;;10.80;78.50;;;;;;4825560;29;20450;-81
2022/02/18 09:57:47;;;;;;;4.38;1.83;;;10.80;78.50;;;;;;4795724;29;20056;-78
2022/02/18 10:00:14;;;;;;;3.38;1.80;;;10.80;78.60;;;;;;4809604;29;20066;-78
2022/02/18 10:02:43;;;;;;;3.47;1.58;;;10.90;78.60;;;;;;4825063;29;20050;-78
2022/02/18 10:05:09;;;;;;;2.03;1.30;;;10.90;78.50;;;;;;4824832;29;20068;-79
2022/02/18 10:08:09;;;;;;;3.45;1.63;;;10.90;78.50;;;;;;4795342;29;20057;-77
2022/02/18 10:10:38;;;;;;;3.38;1.67;;;10.90;78.70;;;;;;4824842;29;20468;-79
2022/02/18 10:13:04;;;;;;;2.42;1.35;;;11.00;78.50;;;;;;4824436;29;20038;-79
2022/02/18 10:15:44;;;;;;;3.28;1.50;;;10.90;78.50;;;;;;4826111;29;20114;-79
2022/02/18 10:18:10;;;;;;;3.13;1.50;;;11.00;78.70;;;;;;4824284;29;20104;-79
2022/02/18 10:20:40;;;;;;;2.45;1.65;;;11.00;78.50;;;;;;4824570;29;20050;-79
2022/02/18 10:23:07;;;;;;;2.20;1.50;;;11.00;78.60;;;;;;4808728;29;20034;-78
2022/02/18 10:25:39;;;;;;;2.50;1.63;;;11.00;78.60;;;;;;4808924;29;20050;-79
2022/02/18 10:28:07;;;;;;;2.45;1.60;;;11.00;78.60;;;;;;4824602;29;20037;-79
2022/02/18 10:30:34;;;;;;;3.33;1.70;;;11.10;78.60;;;;;;4824385;29;20519;-80
2022/02/18 10:33:11;;;;;;;2.65;1.50;;;11.10;78.60;;;;;;4823806;29;20053;-79
2022/02/18 10:35:38;;;;;;;2.42;1.70;;;11.10;78.70;;;;;;4824862;29;20114;-77
2022/02/18 10:38:05;;;;;;;2.20;1.50;;;11.20;78.60;;;;;;4794104;29;20023;-78
2022/02/18 10:40:33;;;;;;;3.08;1.50;;;11.20;78.70;;;;;;4808679;29;20105;-79
2022/02/18 10:43:10;;;;;;;1.80;1.50;;;11.20;78.70;;;;;;4808949;29;20042;-78
2022/02/18 10:45:55;;;;;;;1.50;1.40;;;11.20;78.70;;;;;;4825767;29;20062;-78
2022/02/18 10:48:23;;;;;;;2.40;1.65;;;11.20;78.70;;;;;;4823837;29;20133;-78
2022/02/18 10:51:05;;;;;;;1.63;1.50;;;11.30;78.60;;;;;;4808546;29;20030;-79
2022/02/18 10:53:36;;;;;;;1.63;1.35;;;11.30;78.80;;;;;;4824920;29;20140;-79
2022/02/18 10:56:07;;;;;;;1.63;1.45;;;11.30;78.60;;;;;;4824700;29;20034;-78
2022/02/18 10:58:39;;;;;;;1.92;1.30;;;11.40;78.70;;;;;;4824128;29;20042;-78
2022/02/18 11:01:08;;;;;;;1.35;1.25;;;11.40;78.70;;;;;;4808055;29;20038;-80
2022/02/18 11:03:36;;;;;;;1.90;1.20;;;11.40;78.70;;;;;;4808649;29;20031;-78
2022/02/18 11:06:32;;;;;;;1.65;1.23;;;11.40;78.70;;;;;;4823768;29;20031;-79
2022/02/18 11:09:10;;;;;;;1.38;1.27;;;11.40;78.70;;;;;;4808701;29;20460;-81
2022/02/18 11:11:43;;;;;;;1.92;1.50;;;11.50;78.70;;;;;;4808436;29;20034;-78
2022/02/18 11:14:15;;;;;;;1.40;1.30;;;11.50;78.70;;;;;;4808186;29;20103;-79
2022/02/18 11:16:43;;;;;;;1.90;1.33;;;11.50;78.70;;;;;;4823937;29;20045;-79
2022/02/18 11:19:10;;;;;;;1.20;1.10;;;11.60;78.80;;;;;;4808325;29;20062;-80
2022/02/18 11:21:36;;;;;;;2.38;1.58;;;11.60;78.70;;;;;;4808266;29;20038;-79
2022/02/18 11:24:05;;;;;;;1.67;1.20;;;11.60;78.70;;;;;;4823849;29;20502;-79
2022/02/18 11:26:32;;;;;;;1.42;1.20;;;11.60;78.70;;;;;;4808036;29;20034;-78
2022/02/18 11:29:02;;;;;;;1.30;1.20;;;11.70;78.70;;;;;;4808798;29;20042;-83
2022/02/18 11:31:37;;;;;;;1.35;1.20;;;11.70;78.70;;;;;;4808451;29;20042;-79
2022/02/18 11:34:40;;;;;;;2.38;1.60;;;11.70;78.70;;;;;;4823722;29;20067;-79
2022/02/18 11:37:23;;;;;;;1.35;1.17;;;11.70;78.70;;;;;;4809425;29;20035;-79
2022/02/18 11:40:01;;;;;;;1.20;1.10;;;11.80;78.60;;;;;;4808027;29;20128;-79
2022/02/18 11:42:43;;;;;;;1.20;1.10;;;11.80;78.70;;;;;;4808502;29;20046;-80
2022/02/18 11:45:15;;;;;;;1.70;1.30;;;11.80;78.70;;;;;;4823419;29;20034;-78
2022/02/18 11:47:41;;;;;;;1.30;1.08;;;11.80;78.60;;;;;;4822963;29;20058;-81
2022/02/18 11:50:10;;;;;;;1.08;1.02;;;11.80;78.60;;;;;;4822975;29;20477;-79
2022/02/18 11:52:49;;;;;;;1.40;1.30;;;11.90;78.70;;;;;;4809114;29;20034;-80
2022/02/18 11:55:31;;;;;;;1.15;1.10;;;11.90;78.70;;;;;;4808503;29;20391;-81
2022/02/18 11:58:18;;;;;;;1.45;1.10;;;12.00;78.80;;;;;;4823509;29;20035;-79
2022/02/18 12:00:48;;;;;;;1.20;1.10;;;12.00;78.70;;;;;;4822746;29;20050;-78
2022/02/18 12:03:25;;;;;;;2.55;1.17;;;12.00;78.60;;;;;;4807993;29;20034;-79
2022/02/18 12:06:16;;;;;;;1.30;1.20;;;12.00;78.60;;;;;;4822949;29;20030;-79
2022/02/18 12:08:49;;;;;;;0.90;0.90;;;12.10;78.80;;;;;;4808282;29;20445;-79
2022/02/18 12:11:16;;;;;;;1.58;1.20;;;12.10;78.70;;;;;;4807441;29;20034;-80
2022/02/18 12:13:54;;;;;;;1.77;1.27;;;12.10;78.60;;;;;;4822698;29;20038;-77
2022/02/18 12:16:21;;;;;;;1.35;0.90;;;12.10;78.70;;;;;;4808121;29;20594;-79
2022/02/18 12:19:05;;;;;;;1.00;1.00;;;12.20;78.70;;;;;;4807434;29;20560;-80
2022/02/18 12:21:32;;;;;;;1.30;1.20;;;12.20;78.70;;;;;;4823106;29;20083;-82
2022/02/18 12:24:32;;;;;;;1.33;1.10;;;12.20;78.60;;;;;;4823060;29;20075;-80
2022/02/18 12:27:18;;;;;;;1.20;1.10;;;12.30;78.80;;;;;;4822841;29;20407;-83
2022/02/18 12:29:46;;;;;;;1.23;1.13;;;12.20;78.60;;;;;;4823216;29;20069;-78
2022/02/18 12:32:13;;;;;;;1.10;1.10;;;12.30;78.50;;;;;;4807914;29;20275;-79
2022/02/18 12:34:41;;;;;;;0.85;0.85;;;12.30;78.50;;;;;;4807968;29;20385;-80
2022/02/18 12:37:14;;;;;;;1.25;1.15;;;12.30;78.60;;;;;;4807366;29;20062;-79
2022/02/18 12:39:45;;;;;;;1.10;1.00;;;12.30;78.60;;;;;;4822721;29;20050;-80
2022/02/18 12:42:30;;;;;;;1.33;1.00;;;12.40;78.60;;;;;;4808146;29;20038;-79
2022/02/18 12:45:00;;;;;;;1.17;1.10;;;12.40;78.60;;;;;;4822470;29;20038;-79
2022/02/18 12:47:28;;;;;;;1.13;1.02;;;12.40;78.50;;;;;;4810041;29;20034;-79
2022/02/18 12:49:57;;;;;;;0.90;0.90;;;12.50;78.60;;;;;;4826879;29;20026;-79
2022/02/18 12:52:28;;;;;;;1.00;1.00;;;12.50;78.60;;;;;;4826604;29;20102;-78
2022/02/18 12:55:04;;;;;;;1.13;1.02;;;12.50;78.60;;;;;;4810881;29;20030;-79